Time;durP1;ratioP1;P1;durP2;ratioP2;P2;SDS_P1;SDS_P2;PMS_P1;PMS_P2;Temp;Humidity;BMP_temperature;BMP_pressure;BME280_temperature;BME280_humidity;BME280_pressure;Samples;Min_cycle;Max_cycle;Signal;HPM_P1;HPM_P2
2023/06/13 00:01:48;;;;;;;1999.90;999.90;;;19.60;99.90;;;;;;5095767;28;20023;-76
2023/06/13 00:04:21;;;;;;;1999.90;999.90;;;19.60;99.90;;;;;;5083445;28;20391;-79
2023/06/13 00:06:50;;;;;;;1999.90;999.90;;;19.50;99.90;;;;;;5054330;28;20083;-79
2023/06/13 00:09:19;;;;;;;1999.90;999.90;;;19.50;99.90;;;;;;5064441;28;20095;-79
2023/06/13 00:11:49;;;;;;;1999.90;999.90;;;19.50;99.90;;;;;;5075761;28;20050;-76
2023/06/13 00:14:16;;;;;;;1999.90;999.90;;;19.40;99.90;;;;;;5075873;28;20039;-77
2023/06/13 00:16:43;;;;;;;1999.90;999.90;;;19.40;99.90;;;;;;5057643;28;20028;-79
2023/06/13 00:19:10;;;;;;;1999.90;999.90;;;19.40;99.90;;;;;;5075830;28;20502;-79
2023/06/13 00:21:37;;;;;;;1999.90;999.90;;;19.40;99.90;;;;;;5075801;28;20432;-77
2023/06/13 00:24:03;;;;;;;1999.90;999.90;;;19.40;99.90;;;;;;5075309;28;20506;-79
2023/06/13 00:26:29;;;;;;;1999.90;999.90;;;19.40;99.90;;;;;;5074519;28;20025;-77
2023/06/13 00:28:54;;;;;;;1999.90;999.90;;;19.40;99.90;;;;;;5075635;28;20074;-79
2023/06/13 00:31:20;;;;;;;1999.90;999.90;;;19.40;99.90;;;;;;5075507;28;20051;-79
2023/06/13 00:33:45;;;;;;;1999.90;999.90;;;19.40;99.90;;;;;;5075590;28;20085;-79
2023/06/13 00:36:15;;;;;;;1999.90;999.90;;;19.40;99.90;;;;;;5075240;28;20389;-79
2023/06/13 00:38:42;;;;;;;1999.90;999.90;;;19.40;99.90;;;;;;5075454;28;20477;-77
2023/06/13 00:41:07;;;;;;;1999.90;999.90;;;19.40;99.90;;;;;;5075416;28;20099;-77
2023/06/13 00:43:34;;;;;;;1999.90;999.90;;;19.40;99.90;;;;;;5075496;28;20104;-79
2023/06/13 00:46:03;;;;;;;1999.90;999.90;;;19.40;99.90;;;;;;5075966;28;20024;-79
2023/06/13 00:48:29;;;;;;;1999.90;999.90;;;19.60;99.90;;;;;;5095485;28;20487;-80
2023/06/13 00:50:55;;;;;;;1999.90;999.90;;;19.60;99.90;;;;;;5095430;28;20031;-77
2023/06/13 00:53:21;;;;;;;1999.90;999.90;;;19.60;99.90;;;;;;5076391;28;20028;-77
2023/06/13 00:55:49;;;;;;;1999.90;999.90;;;19.70;99.90;;;;;;5094691;28;20498;-80
2023/06/13 00:58:16;;;;;;;1999.90;999.90;;;19.70;99.90;;;;;;5095205;28;20020;-80
2023/06/13 01:00:45;;;;;;;1999.90;999.90;;;19.70;99.90;;;;;;5095536;28;20028;-80
2023/06/13 01:03:14;;;;;;;1999.90;999.90;;;19.70;99.90;;;;;;5091933;28;20101;-81
2023/06/13 01:05:41;;;;;;;1999.90;999.90;;;19.70;99.90;;;;;;5075145;28;20442;-77
2023/06/13 01:08:13;;;;;;;1999.90;999.90;;;19.60;99.90;;;;;;5074691;28;20517;-78
2023/06/13 01:10:40;;;;;;;1999.90;999.90;;;19.70;99.90;;;;;;5074720;28;20055;-80
2023/06/13 01:13:28;;;;;;;1999.90;999.90;;;19.70;99.90;;;;;;5074569;28;20387;-80
2023/06/13 01:16:13;;;;;;;1999.90;999.90;;;19.70;99.90;;;;;;5074748;28;20029;-81
2023/06/13 01:18:43;;;;;;;1999.90;999.90;;;19.70;99.90;;;;;;5055979;28;20495;-78
2023/06/13 01:21:10;;;;;;;1999.90;999.90;;;19.70;99.90;;;;;;5074941;28;20043;-78
2023/06/13 01:23:39;;;;;;;1999.90;999.90;;;19.80;99.90;;;;;;5074379;28;20099;-81
2023/06/13 01:26:33;;;;;;;1999.90;999.90;;;19.80;99.90;;;;;;5074414;28;20024;-82
2023/06/13 01:29:00;;;;;;;1999.90;999.90;;;19.90;99.90;;;;;;5064279;28;20044;-81
2023/06/13 01:31:27;;;;;;;1999.90;999.90;;;19.90;99.90;;;;;;5074365;28;20487;-78
2023/06/13 01:33:54;;;;;;;1999.90;999.90;;;19.90;99.90;;;;;;5074178;28;20028;-78
2023/06/13 01:36:20;;;;;;;1999.90;999.90;;;20.00;99.90;;;;;;5074344;28;20518;-82
2023/06/13 01:38:46;;;;;;;1999.90;999.90;;;20.00;99.90;;;;;;5056392;28;20368;-82
2023/06/13 01:41:12;;;;;;;1999.90;999.90;;;19.90;99.90;;;;;;5074249;28;20031;-78
2023/06/13 01:43:38;;;;;;;1999.90;999.90;;;19.90;99.90;;;;;;5074249;28;20024;-79
2023/06/13 01:46:30;;;;;;;1999.90;999.90;;;19.80;99.90;;;;;;5057505;28;20067;-78
2023/06/13 01:49:10;;;;;;;1999.90;999.90;;;19.80;99.90;;;;;;5094410;28;20397;-82
2023/06/13 01:51:50;;;;;;;1999.90;999.90;;;19.80;99.90;;;;;;5076055;28;20025;-82
2023/06/13 01:54:21;;;;;;;1999.90;999.90;;;19.80;99.90;;;;;;5093635;28;20021;-82
2023/06/13 01:56:49;;;;;;;1999.90;999.90;;;19.80;99.90;;;;;;5094691;28;20024;-78
2023/06/13 01:59:21;;;;;;;1999.90;999.90;;;19.80;99.90;;;;;;5094078;28;20032;-78
2023/06/13 02:01:47;;;;;;;1999.90;999.90;;;19.80;99.90;;;;;;5094082;28;20059;-81
2023/06/13 02:04:14;;;;;;;1999.90;999.90;;;19.90;99.90;;;;;;5082367;28;20443;-81
2023/06/13 02:06:40;;;;;;;1999.90;999.90;;;19.90;99.90;;;;;;5073874;28;20084;-81
2023/06/13 02:09:06;;;;;;;1999.90;999.90;;;19.90;99.90;;;;;;5055855;28;20052;-78
2023/06/13 02:11:31;;;;;;;1999.90;999.90;;;20.00;99.90;;;;;;5073708;28;20021;-78
2023/06/13 02:13:57;;;;;;;1999.90;999.90;;;19.80;99.90;;;;;;5073615;28;20025;-81
2023/06/13 02:16:29;;;;;;;1999.90;999.90;;;19.80;99.90;;;;;;5087286;28;20036;-82
2023/06/13 02:18:55;;;;;;;1999.90;999.90;;;19.80;99.90;;;;;;5097047;28;20026;-82
2023/06/13 02:21:22;;;;;;;1999.90;999.90;;;19.70;99.90;;;;;;5097005;28;20028;-82
2023/06/13 02:23:47;;;;;;;1999.90;999.90;;;19.70;99.90;;;;;;5062092;28;20052;-78
2023/06/13 02:26:14;;;;;;;1999.90;999.90;;;19.60;99.90;;;;;;5073435;28;20056;-81
2023/06/13 02:28:40;;;;;;;1999.90;999.90;;;19.60;99.90;;;;;;5074017;28;20035;-82
2023/06/13 02:31:05;;;;;;;1999.90;999.90;;;19.50;99.90;;;;;;5073372;28;20395;-82
2023/06/13 02:33:31;;;;;;;1999.90;999.90;;;19.20;99.90;;;;;;5073598;28;20033;-82
2023/06/13 02:35:57;;;;;;;1999.90;999.90;;;19.10;99.90;;;;;;5073771;28;20025;-77
2023/06/13 02:38:22;;;;;;;1999.90;999.90;;;19.00;99.90;;;;;;5074090;28;20349;-81
2023/06/13 02:40:48;;;;;;;1999.90;999.90;;;19.00;99.90;;;;;;5074751;28;20050;-82
2023/06/13 02:43:14;;;;;;;1999.90;999.90;;;19.00;99.90;;;;;;5076187;28;20387;-82
2023/06/13 02:45:39;;;;;;;1999.90;999.90;;;19.00;99.90;;;;;;5074196;28;20106;-82
2023/06/13 02:48:05;;;;;;;1999.90;999.90;;;19.00;99.90;;;;;;5075637;28;20540;-77
2023/06/13 02:50:31;;;;;;;1999.90;999.90;;;19.00;99.90;;;;;;5093409;28;20024;-77
2023/06/13 02:52:57;;;;;;;1999.90;999.90;;;18.90;99.90;;;;;;5093238;28;20028;-77
2023/06/13 02:55:24;;;;;;;1999.90;999.90;;;18.90;99.90;;;;;;5092528;28;20012;-82
2023/06/13 02:57:50;;;;;;;1999.90;999.90;;;18.90;99.90;;;;;;5093248;28;20027;-77
2023/06/13 03:00:16;;;;;;;1999.90;999.90;;;18.90;99.90;;;;;;5093066;28;20028;-77
2023/06/13 03:02:43;;;;;;;1999.90;999.90;;;19.00;99.90;;;;;;5093308;28;20103;-77
2023/06/13 03:05:10;;;;;;;1999.90;999.90;;;19.00;99.90;;;;;;5052711;28;20029;-83
2023/06/13 03:07:36;;;;;;;1999.90;999.90;;;18.90;99.90;;;;;;5052634;28;20423;-83
2023/06/13 03:10:04;;;;;;;1999.90;999.90;;;18.90;99.90;;;;;;5067240;28;20027;-82
2023/06/13 03:12:30;;;;;;;1999.90;999.90;;;18.80;99.90;;;;;;5072850;28;20111;-83
2023/06/13 03:14:56;;;;;;;1999.90;999.90;;;18.80;99.90;;;;;;5072679;28;20079;-76
2023/06/13 03:17:22;;;;;;;1999.90;999.90;;;18.70;99.90;;;;;;5072654;28;20499;-77
2023/06/13 03:19:48;;;;;;;1999.90;999.90;;;18.70;99.90;;;;;;5072494;28;20397;-83
2023/06/13 03:22:14;;;;;;;1999.90;999.90;;;18.70;99.90;;;;;;5072575;28;20112;-83
2023/06/13 03:24:44;;;;;;;1999.90;999.90;;;18.70;99.90;;;;;;5051051;28;20028;-83
2023/06/13 03:27:12;;;;;;;1999.90;999.90;;;18.70;99.90;;;;;;5052593;28;20511;-77
2023/06/13 03:29:38;;;;;;;1999.90;999.90;;;18.80;99.90;;;;;;5052464;28;20049;-77
2023/06/13 03:32:04;;;;;;;1999.90;999.90;;;18.80;99.90;;;;;;5052419;28;20044;-82
2023/06/13 03:34:37;;;;;;;1999.90;999.90;;;18.80;99.90;;;;;;5051108;28;20068;-82
2023/06/13 03:37:05;;;;;;;1999.90;999.90;;;18.80;99.90;;;;;;5052870;28;20028;-82
2023/06/13 03:39:30;;;;;;;1999.90;999.90;;;18.80;99.90;;;;;;5052143;28;20630;-82
2023/06/13 03:41:56;;;;;;;1999.90;999.90;;;18.90;99.90;;;;;;5051795;28;20112;-77
2023/06/13 03:44:22;;;;;;;1999.90;999.90;;;18.90;99.90;;;;;;5052395;28;20028;-77
2023/06/13 03:46:47;;;;;;;1999.90;999.90;;;18.90;99.90;;;;;;5046189;28;20040;-82
2023/06/13 03:49:13;;;;;;;1999.90;999.90;;;18.90;99.90;;;;;;5052419;28;20033;-82
2023/06/13 03:51:38;;;;;;;1999.90;999.90;;;18.90;99.90;;;;;;5052361;28;20116;-82
2023/06/13 03:54:04;;;;;;;1999.90;999.90;;;18.90;99.90;;;;;;5052300;28;20040;-77
2023/06/13 03:56:30;;;;;;;1999.90;999.90;;;18.90;99.90;;;;;;5051674;28;20017;-77
2023/06/13 03:58:55;;;;;;;1999.90;999.90;;;18.90;99.90;;;;;;5052199;28;20029;-82
2023/06/13 04:01:21;;;;;;;1999.90;999.90;;;19.00;99.90;;;;;;5050810;28;20072;-82
2023/06/13 04:03:47;;;;;;;1999.90;999.90;;;19.00;99.90;;;;;;5060770;28;20035;-82
2023/06/13 04:06:12;;;;;;;1999.90;999.90;;;19.00;99.90;;;;;;5071982;28;20423;-77
2023/06/13 04:08:38;;;;;;;1999.90;999.90;;;18.90;99.90;;;;;;5053856;28;20028;-77
2023/06/13 04:11:05;;;;;;;1999.90;999.90;;;19.00;99.90;;;;;;5072116;28;20100;-82
2023/06/13 04:13:30;;;;;;;1999.90;999.90;;;19.00;99.90;;;;;;5072189;28;20491;-82
2023/06/13 04:15:56;;;;;;;1999.90;999.90;;;19.10;99.90;;;;;;5072152;28;20063;-82
2023/06/13 04:18:23;;;;;;;1999.90;999.90;;;19.10;99.90;;;;;;5071340;28;20024;-81
2023/06/13 04:20:51;;;;;;;1999.90;999.90;;;19.10;99.90;;;;;;5071879;28;20107;-77
2023/06/13 04:23:17;;;;;;;1999.90;999.90;;;19.10;99.90;;;;;;5071980;28;20070;-81
2023/06/13 04:25:43;;;;;;;1999.90;999.90;;;19.10;99.90;;;;;;5072066;28;20025;-77
2023/06/13 04:28:10;;;;;;;1999.90;999.90;;;19.10;99.90;;;;;;5071749;28;20024;-76
2023/06/13 04:30:36;;;;;;;1999.90;999.90;;;19.00;99.90;;;;;;5072720;28;20013;-82
2023/06/13 04:33:02;;;;;;;1999.90;999.90;;;19.00;99.90;;;;;;5075339;28;20020;-76
2023/06/13 04:35:28;;;;;;;1999.90;999.90;;;19.10;99.90;;;;;;5073923;28;20418;-76
2023/06/13 04:37:56;;;;;;;1999.90;999.90;;;19.00;99.90;;;;;;5075394;28;20056;-82
2023/06/13 04:40:31;;;;;;;1999.90;999.90;;;19.10;99.90;;;;;;5074676;28;20101;-82
2023/06/13 04:42:58;;;;;;;1999.90;999.90;;;19.10;99.90;;;;;;5094312;28;20039;-82
2023/06/13 04:45:24;;;;;;;1999.90;999.90;;;19.10;99.90;;;;;;5095657;28;20537;-77
2023/06/13 04:47:51;;;;;;;1999.90;999.90;;;19.10;99.90;;;;;;5093200;28;20042;-77
2023/06/13 04:50:21;;;;;;;1999.90;999.90;;;19.10;99.90;;;;;;5095935;28;20087;-82
2023/06/13 04:52:50;;;;;;;1999.90;999.90;;;19.20;99.90;;;;;;5077976;28;20020;-82
2023/06/13 04:55:16;;;;;;;1999.90;999.90;;;19.30;99.90;;;;;;5075248;28;20024;-82
2023/06/13 04:57:41;;;;;;;1999.90;999.90;;;19.20;99.90;;;;;;5074239;28;20029;-82
2023/06/13 05:00:09;;;;;;;1999.90;999.90;;;19.20;99.90;;;;;;5074625;28;20020;-77
2023/06/13 05:02:35;;;;;;;1999.90;999.90;;;19.30;99.90;;;;;;5074991;28;20070;-82
2023/06/13 05:05:04;;;;;;;1999.90;999.90;;;19.30;99.90;;;;;;5074804;28;20029;-82
2023/06/13 05:07:30;;;;;;;1999.90;999.90;;;19.30;99.90;;;;;;5074571;28;20053;-82
2023/06/13 05:09:56;;;;;;;1999.90;999.90;;;19.40;99.90;;;;;;5074613;28;20446;-82
2023/06/13 05:12:22;;;;;;;1999.90;999.90;;;19.40;99.90;;;;;;5074396;28;20044;-76
2023/06/13 05:14:48;;;;;;;1999.90;999.90;;;19.50;99.90;;;;;;5075534;28;20021;-82
2023/06/13 05:17:14;;;;;;;1999.90;999.90;;;19.50;99.90;;;;;;5075797;28;20033;-81
2023/06/13 05:19:40;;;;;;;1999.90;999.90;;;19.50;99.90;;;;;;5056439;28;20431;-82
2023/06/13 05:22:06;;;;;;;1999.90;999.90;;;19.50;99.90;;;;;;5094598;28;20032;-82
2023/06/13 05:24:32;;;;;;;1999.90;999.90;;;19.50;99.90;;;;;;5079706;28;20513;-76
2023/06/13 05:26:59;;;;;;;1999.90;999.90;;;19.50;99.90;;;;;;5056271;28;20029;-76
2023/06/13 05:29:26;;;;;;;1999.90;999.90;;;19.40;99.90;;;;;;5074429;28;20548;-77
2023/06/13 05:31:52;;;;;;;1999.90;999.90;;;19.50;99.90;;;;;;5073979;28;20103;-82
2023/06/13 05:34:18;;;;;;;1999.90;999.90;;;19.50;99.90;;;;;;5091759;28;20008;-83
2023/06/13 05:36:43;;;;;;;1999.90;999.90;;;19.50;99.90;;;;;;5099119;28;20038;-79
2023/06/13 05:39:09;;;;;;;1999.90;999.90;;;19.50;99.90;;;;;;5065748;28;20051;-76
2023/06/13 05:41:36;;;;;;;1999.90;999.90;;;19.50;99.90;;;;;;5074782;28;20226;-83
2023/06/13 05:44:02;;;;;;;1999.90;999.90;;;19.50;99.90;;;;;;5090905;28;20039;-83
2023/06/13 05:46:27;;;;;;;1999.90;999.90;;;19.50;99.90;;;;;;5072051;28;20029;-83
2023/06/13 05:48:53;;;;;;;1999.90;999.90;;;19.50;99.90;;;;;;5056446;28;20054;-82
2023/06/13 05:51:18;;;;;;;1999.90;999.90;;;19.60;99.90;;;;;;5073302;28;20024;-77
2023/06/13 05:53:44;;;;;;;1999.90;999.90;;;19.60;99.90;;;;;;5073687;28;20032;-78
2023/06/13 05:56:10;;;;;;;1999.90;999.90;;;19.60;99.90;;;;;;5073388;28;20016;-83
2023/06/13 05:58:35;;;;;;;1999.90;999.90;;;19.70;99.90;;;;;;5080779;28;20036;-77
2023/06/13 06:01:03;;;;;;;1999.90;999.90;;;19.60;99.90;;;;;;5093455;28;20031;-77
2023/06/13 06:03:29;;;;;;;1999.90;999.90;;;19.60;99.90;;;;;;5086189;28;20028;-77
2023/06/13 06:05:55;;;;;;;1999.90;999.90;;;19.70;99.90;;;;;;5064538;28;20048;-78
2023/06/13 06:08:20;;;;;;;1999.90;999.90;;;19.70;99.90;;;;;;5062680;28;20033;-83
2023/06/13 06:10:46;;;;;;;1999.90;999.90;;;19.70;99.90;;;;;;5066841;28;20031;-83
2023/06/13 06:13:12;;;;;;;1999.90;999.90;;;19.80;99.90;;;;;;5052140;28;20036;-77
2023/06/13 06:15:37;;;;;;;1999.90;999.90;;;19.90;99.90;;;;;;5064928;28;20033;-82
2023/06/13 06:18:03;;;;;;;1999.90;999.90;;;19.90;99.90;;;;;;5053925;28;20046;-78
2023/06/13 06:20:28;;;;;;;1999.90;999.90;;;20.10;99.90;;;;;;5071801;28;20033;-77
2023/06/13 06:22:54;;;;;;;1999.90;999.90;;;20.00;99.90;;;;;;5070562;28;20027;-82
2023/06/13 06:25:20;;;;;;;1999.90;999.90;;;20.10;99.90;;;;;;5071010;28;20841;-82
2023/06/13 06:27:55;;;;;;;1999.90;999.90;;;20.20;99.90;;;;;;5068709;28;20174;-82
2023/06/13 06:30:21;;;;;;;1999.90;999.90;;;20.30;99.90;;;;;;5070865;28;20535;-77
2023/06/13 06:32:47;;;;;;;1999.90;999.90;;;20.40;99.90;;;;;;5068390;28;20108;-76
2023/06/13 06:35:14;;;;;;;1999.90;999.90;;;20.60;99.90;;;;;;5064319;28;20503;-77
2023/06/13 06:37:40;;;;;;;1999.90;999.90;;;20.70;99.90;;;;;;5076293;28;20089;-77
2023/06/13 06:40:08;;;;;;;1999.90;999.90;;;20.80;99.90;;;;;;5074081;28;20418;-82
2023/06/13 06:42:33;;;;;;;1999.90;999.90;;;21.00;99.90;;;;;;5064379;28;20027;-78
2023/06/13 06:44:59;;;;;;;1999.90;999.90;;;20.90;99.90;;;;;;5069107;28;20025;-76
2023/06/13 06:47:25;;;;;;;1999.90;999.90;;;21.00;99.90;;;;;;5067208;28;20032;-83
2023/06/13 06:49:50;;;;;;;1999.90;999.90;;;21.10;99.90;;;;;;5047344;28;20028;-83
2023/06/13 06:52:16;;;;;;;1999.90;999.90;;;21.30;99.90;;;;;;5064204;28;20086;-83
2023/06/13 06:54:41;;;;;;;1999.90;999.90;;;21.60;99.90;;;;;;5065015;28;20641;-77
2023/06/13 06:57:07;;;;;;;1999.90;999.90;;;21.80;99.90;;;;;;5067319;28;20027;-77
2023/06/13 06:59:32;;;;;;;1999.90;999.90;;;21.90;99.90;;;;;;5066579;28;20040;-83
2023/06/13 07:01:58;;;;;;;1999.90;999.90;;;21.70;99.90;;;;;;5069106;28;20028;-77
2023/06/13 07:04:24;;;;;;;1999.90;999.90;;;21.80;99.90;;;;;;5069707;28;20484;-84
2023/06/13 07:06:49;;;;;;;1999.90;999.90;;;21.90;99.90;;;;;;5068401;28;20071;-84
2023/06/13 07:09:15;;;;;;;1999.90;999.90;;;22.00;99.90;;;;;;5066173;28;20028;-76
2023/06/13 07:11:41;;;;;;;1999.90;999.90;;;22.10;99.90;;;;;;5066204;28;20033;-78
2023/06/13 07:14:06;;;;;;;1999.90;999.90;;;22.40;99.90;;;;;;5066454;28;20030;-83
2023/06/13 07:16:32;;;;;;;1999.90;999.90;;;22.50;99.90;;;;;;5065029;28;20033;-83
2023/06/13 07:18:58;;;;;;;1999.90;999.90;;;22.30;99.90;;;;;;5071521;28;20032;-83
2023/06/13 07:21:23;;;;;;;1999.90;999.90;;;22.40;99.90;;;;;;5073982;28;20161;-77
2023/06/13 07:23:49;;;;;;;1999.90;999.90;;;22.50;99.90;;;;;;5065387;28;20025;-78
2023/06/13 07:26:15;;;;;;;1999.90;999.90;;;22.60;99.90;;;;;;5069175;28;20487;-83
2023/06/13 07:28:41;;;;;;;1999.90;999.90;;;22.60;99.90;;;;;;5068388;28;20510;-83
2023/06/13 07:31:06;;;;;;;1999.90;999.90;;;23.00;99.90;;;;;;5068735;28;20021;-83
2023/06/13 07:33:32;;;;;;;1999.90;999.90;;;24.40;99.90;;;;;;5068801;28;20039;-84
2023/06/13 07:35:58;;;;;;;1999.90;999.90;;;25.50;99.90;;;;;;5073107;28;20036;-79
2023/06/13 07:38:26;;;;;;;1999.90;999.90;;;26.30;99.90;;;;;;5072948;28;20107;-84
2023/06/13 07:40:52;;;;;;;1999.90;999.90;;;26.30;99.90;;;;;;5051797;28;20048;-84
2023/06/13 07:43:18;;;;;;;1999.90;999.90;;;26.00;99.90;;;;;;5075365;28;20491;-84
2023/06/13 07:45:45;;;;;;;1999.90;999.90;;;25.50;99.90;;;;;;5068336;28;20025;-83
2023/06/13 07:48:10;;;;;;;1999.90;999.90;;;25.50;99.90;;;;;;5076710;28;20024;-79
2023/06/13 07:50:36;;;;;;;1999.90;999.90;;;26.00;99.90;;;;;;5071785;28;20045;-78
2023/06/13 07:53:02;;;;;;;1999.90;999.90;;;26.50;99.90;;;;;;5072905;28;20119;-84
2023/06/13 07:55:28;;;;;;;1999.90;999.90;;;27.10;99.90;;;;;;5063750;28;20493;-79
2023/06/13 07:57:54;;;;;;;1999.90;999.90;;;27.40;99.90;;;;;;5071428;28;20034;-84
2023/06/13 08:00:20;;;;;;;1999.90;999.90;;;26.60;99.90;;;;;;5050592;28;20438;-79
2023/06/13 08:02:46;;;;;;;1999.90;999.90;;;26.10;99.90;;;;;;5068095;28;20036;-79
2023/06/13 08:05:13;;;;;;;1999.90;999.90;;;25.50;99.90;;;;;;5050559;28;20037;-83
2023/06/13 08:07:39;;;;;;;1999.90;999.90;;;25.30;99.90;;;;;;5076639;28;20199;-84
2023/06/13 08:10:05;;;;;;;1999.90;999.90;;;24.80;99.90;;;;;;5073024;28;20502;-84
2023/06/13 08:12:31;;;;;;;1999.90;999.90;;;24.30;99.90;;;;;;5071813;28;20033;-80
2023/06/13 08:14:57;;;;;;;1999.90;999.90;;;23.90;99.90;;;;;;5062855;28;20085;-80
2023/06/13 08:17:24;;;;;;;1999.90;999.90;;;23.60;99.90;;;;;;5076735;28;20033;-86
2023/06/13 08:19:50;;;;;;;1999.90;999.90;;;23.30;99.90;;;;;;5072219;28;20035;-85
2023/06/13 08:22:17;;;;;;;1999.90;999.90;;;23.00;99.90;;;;;;5054490;28;20097;-85
2023/06/13 08:24:43;;;;;;;1999.90;999.90;;;22.90;99.90;;;;;;5053995;28;20033;-80
2023/06/13 08:27:10;;;;;;;1999.90;999.90;;;22.70;99.90;;;;;;5066496;28;20025;-80
2023/06/13 08:29:36;;;;;;;1999.90;999.90;;;22.60;99.90;;;;;;5074434;28;20024;-80
2023/06/13 08:32:02;;;;;;;1999.90;999.90;;;22.60;99.90;;;;;;5069067;28;20063;-84
2023/06/13 08:34:27;;;;;;;1999.90;999.90;;;22.60;99.90;;;;;;5068762;28;20052;-85
2023/06/13 08:36:53;;;;;;;1999.90;999.90;;;22.50;99.90;;;;;;5073062;28;20454;-80
2023/06/13 08:39:20;;;;;;;1999.90;999.90;;;22.40;99.90;;;;;;5068762;28;20122;-84
2023/06/13 08:41:48;;;;;;;1999.90;999.90;;;22.40;99.90;;;;;;5066541;28;20048;-81
2023/06/13 08:44:14;;;;;;;1999.90;999.90;;;22.20;99.90;;;;;;5054336;28;20471;-87
2023/06/13 08:46:39;;;;;;;1999.90;999.90;;;22.20;99.90;;;;;;5072497;28;20056;-86
2023/06/13 08:49:05;;;;;;;1999.90;999.90;;;22.30;99.90;;;;;;5071284;28;20068;-80
2023/06/13 08:51:31;;;;;;;1999.90;999.90;;;22.20;99.90;;;;;;5062328;28;20058;-83
2023/06/13 08:54:02;;;;;;;1999.90;999.90;;;22.20;99.90;;;;;;5082558;28;20105;-80
2023/06/13 08:56:33;;;;;;;1999.90;999.90;;;22.10;99.90;;;;;;5078093;28;20046;-83
2023/06/13 08:59:06;;;;;;;1999.90;999.90;;;22.10;99.90;;;;;;5090843;28;20495;-87
2023/06/13 09:01:32;;;;;;;1999.90;999.90;;;22.00;99.90;;;;;;5086229;28;20032;-85
2023/06/13 09:03:59;;;;;;;1999.90;999.90;;;21.90;99.90;;;;;;5083162;28;20032;-80
2023/06/13 09:06:25;;;;;;;1999.90;999.90;;;21.90;99.90;;;;;;5070898;28;20157;-81
2023/06/13 09:08:53;;;;;;;1999.90;999.90;;;21.90;99.90;;;;;;5079332;28;20051;-81
2023/06/13 09:11:19;;;;;;;1999.90;999.90;;;21.80;99.90;;;;;;5071174;28;20024;-86
2023/06/13 09:13:45;;;;;;;1999.90;999.90;;;21.80;99.90;;;;;;5052886;28;20029;-85
2023/06/13 09:16:11;;;;;;;1999.90;999.90;;;21.80;99.90;;;;;;5070159;28;20025;-86
2023/06/13 09:18:42;;;;;;;1999.90;999.90;;;21.80;99.90;;;;;;5077610;28;20495;-81
2023/06/13 09:21:09;;;;;;;1999.90;999.90;;;21.90;99.90;;;;;;5070995;28;20534;-81
2023/06/13 09:23:35;;;;;;;1999.90;999.90;;;21.90;99.90;;;;;;5073851;28;20039;-79
2023/06/13 09:26:02;;;;;;;1999.90;999.90;;;22.00;99.90;;;;;;5066791;28;20079;-85
2023/06/13 09:28:42;;;;;;;1999.90;999.90;;;22.10;99.90;;;;;;5065097;28;20032;-79
2023/06/13 09:31:08;;;;;;;1999.90;999.90;;;22.10;99.90;;;;;;5073679;28;20032;-80
2023/06/13 09:33:37;;;;;;;1999.90;999.90;;;22.10;99.90;;;;;;5077902;28;20024;-80
2023/06/13 09:36:07;;;;;;;1999.90;999.90;;;22.10;99.90;;;;;;5079086;28;20038;-85
2023/06/13 09:38:40;;;;;;;1999.90;999.90;;;22.10;99.90;;;;;;5076218;28;20119;-79
2023/06/13 09:41:07;;;;;;;1999.90;999.90;;;22.20;99.90;;;;;;5071046;28;20610;-83
2023/06/13 09:43:33;;;;;;;1999.90;999.90;;;22.20;99.90;;;;;;5068801;28;20040;-85
2023/06/13 09:46:00;;;;;;;1999.90;999.90;;;22.20;99.90;;;;;;5065188;28;20402;-80
2023/06/13 09:48:25;;;;;;;1999.90;999.90;;;22.10;99.90;;;;;;5069556;28;20082;-80
2023/06/13 09:50:51;;;;;;;1999.90;999.90;;;22.10;99.90;;;;;;5070070;28;20207;-84
2023/06/13 09:53:17;;;;;;;1999.90;999.90;;;22.00;99.90;;;;;;5071202;28;20541;-85
2023/06/13 09:55:43;;;;;;;1999.90;999.90;;;22.10;99.90;;;;;;5059773;28;20036;-85
2023/06/13 09:58:09;;;;;;;1999.90;999.90;;;22.30;99.90;;;;;;5068309;28;20554;-80
2023/06/13 10:00:35;;;;;;;1999.90;999.90;;;22.40;99.90;;;;;;5063654;28;20116;-81
2023/06/13 10:03:02;;;;;;;1999.90;999.90;;;22.60;99.90;;;;;;5076057;28;20042;-80
2023/06/13 10:05:28;;;;;;;1999.90;999.90;;;23.20;99.90;;;;;;5069803;28;20476;-80
2023/06/13 10:07:55;;;;;;;1999.90;999.90;;;24.30;99.90;;;;;;5071802;28;20070;-85
2023/06/13 10:10:21;;;;;;;1999.90;999.90;;;25.60;99.90;;;;;;5064637;28;20377;-86
2023/06/13 10:12:55;;;;;;;1999.90;999.90;;;27.80;99.90;;;;;;5066583;28;20029;-80
2023/06/13 10:15:29;;;;;;;1999.90;999.90;;;27.90;99.90;;;;;;5070317;28;20091;-84
2023/06/13 10:17:59;;;;;;;1999.90;999.90;;;27.50;99.90;;;;;;5047631;28;20078;-83
2023/06/13 10:20:28;;;;;;;1999.90;999.90;;;27.20;99.90;;;;;;5071072;28;20028;-80
2023/06/13 10:22:56;;;;;;;1999.90;999.90;;;27.30;99.90;;;;;;5068376;28;20081;-80
2023/06/13 10:25:23;;;;;;;1999.90;999.90;;;26.90;99.90;;;;;;5065561;28;20030;-80
2023/06/13 10:27:53;;;;;;;1999.90;999.90;;;26.80;99.90;;;;;;5066813;28;20063;-80
2023/06/13 10:30:18;;;;;;;1999.90;999.90;;;26.60;99.90;;;;;;5076437;28;20085;-86
2023/06/13 10:32:59;;;;;;;1999.90;999.90;;;26.10;99.90;;;;;;5070598;28;20461;-80
2023/06/13 10:35:49;;;;;;;1999.90;999.90;;;25.80;99.90;;;;;;5073452;28;20027;-80
2023/06/13 10:38:48;;;;;;;1999.90;999.90;;;25.20;99.90;;;;;;5048164;28;20538;-80
2023/06/13 10:41:57;;;;;;;1999.90;999.90;;;25.10;99.90;;;;;;5067176;28;20043;-85
2023/06/13 10:44:50;;;;;;;1999.90;999.90;;;24.90;99.90;;;;;;5050996;28;20028;-86
2023/06/13 10:47:20;;;;;;;1999.90;999.90;;;24.80;99.90;;;;;;5066769;28;20414;-86
2023/06/13 10:49:51;;;;;;;1999.90;999.90;;;24.70;99.90;;;;;;5068922;28;20090;-80
2023/06/13 10:52:21;;;;;;;1999.90;999.90;;;24.60;99.90;;;;;;5067114;28;20028;-80
2023/06/13 10:54:55;;;;;;;1999.90;999.90;;;24.50;99.90;;;;;;5066741;28;20052;-80
2023/06/13 10:57:21;;;;;;;1999.90;999.90;;;24.40;99.90;;;;;;5066462;28;20024;-87
2023/06/13 10:59:52;;;;;;;1999.90;999.90;;;24.80;99.90;;;;;;5067401;28;20056;-85
2023/06/13 11:02:19;;;;;;;1999.90;999.90;;;25.00;99.90;;;;;;5044660;28;20426;-80
2023/06/13 11:04:52;;;;;;;1999.90;999.90;;;25.10;99.90;;;;;;5069476;28;20043;-80
2023/06/13 11:07:21;;;;;;;1999.90;999.90;;;25.20;99.90;;;;;;5071247;28;20052;-86
2023/06/13 11:10:16;;;;;;;1999.90;999.90;;;25.60;99.90;;;;;;5050958;28;20032;-80
2023/06/13 11:12:44;;;;;;;1999.90;999.90;;;25.90;99.90;;;;;;5057222;28;20044;-80
2023/06/13 11:15:24;;;;;;;1999.90;999.90;;;26.10;99.90;;;;;;5067607;28;20029;-80
2023/06/13 11:18:04;;;;;;;1999.90;999.90;;;26.00;99.90;;;;;;5066499;28;20100;-80
2023/06/13 11:20:49;;;;;;;1999.90;999.90;;;26.10;99.90;;;;;;5045735;28;20725;-86
2023/06/13 11:23:37;;;;;;;1999.90;999.90;;;26.10;99.90;;;;;;5071032;28;20032;-84
2023/06/13 11:26:04;;;;;;;1999.90;999.90;;;26.00;99.90;;;;;;5070499;28;20052;-85
2023/06/13 11:28:30;;;;;;;1999.90;999.90;;;26.40;99.90;;;;;;5063999;28;20032;-80
2023/06/13 11:31:01;;;;;;;1999.90;999.90;;;26.60;99.90;;;;;;5069245;28;20066;-80
2023/06/13 11:33:30;;;;;;;1999.90;999.90;;;27.30;99.90;;;;;;5068546;28;20357;-85
2023/06/13 11:35:58;;;;;;;1999.90;999.90;;;27.50;99.90;;;;;;5042859;28;20491;-85
2023/06/13 11:38:43;;;;;;;1999.90;999.90;;;28.20;99.90;;;;;;5068900;28;20448;-86
2023/06/13 11:41:10;;;;;;;1999.90;999.90;;;28.40;99.90;;;;;;5072794;28;20043;-80
2023/06/13 11:43:36;;;;;;;1999.90;999.90;;;28.00;99.90;;;;;;5073663;28;20032;-81
2023/06/13 11:46:03;;;;;;;1999.90;999.90;;;27.20;99.90;;;;;;5076261;28;20056;-80
2023/06/13 11:48:30;;;;;;;1999.90;999.90;;;26.50;99.90;;;;;;5069446;28;20055;-84
2023/06/13 11:51:15;;;;;;;1999.90;999.90;;;26.20;99.90;;;;;;5061320;28;20462;-84
2023/06/13 11:53:53;;;;;;;1999.90;999.90;;;25.70;99.90;;;;;;5072734;28;20074;-79
2023/06/13 11:56:21;;;;;;;1999.90;999.90;;;25.30;99.90;;;;;;5069173;28;20020;-80
2023/06/13 11:58:47;;;;;;;1999.90;999.90;;;25.20;99.90;;;;;;5065791;28;20032;-84
2023/06/13 12:01:14;;;;;;;1999.90;999.90;;;25.10;99.90;;;;;;5076389;28;20028;-83
2023/06/13 12:03:41;;;;;;;1999.90;999.90;;;25.20;99.90;;;;;;5068990;28;20029;-84